sensor_id;sensor_type;location;lat;lon;timestamp;pressure;altitude;pressure_sealevel;temperature;humidity
77723;BME280;67811;42.656;23.394;2023-06-14T00:01:57;94766.63;;;16.47;89.07
77723;BME280;67811;42.656;23.394;2023-06-14T00:04:23;94760.13;;;16.55;88.78
77723;BME280;67811;42.656;23.394;2023-06-14T00:06:48;94766.75;;;16.52;88.92
77723;BME280;67811;42.656;23.394;2023-06-14T00:09:13;94769.41;;;16.52;88.64
77723;BME280;67811;42.656;23.394;2023-06-14T00:11:40;94763.38;;;16.57;88.33
77723;BME280;67811;42.656;23.394;2023-06-14T00:14:06;94755.00;;;16.53;88.70
77723;BME280;67811;42.656;23.394;2023-06-14T00:16:31;94757.59;;;16.60;88.35
77723;BME280;67811;42.656;23.394;2023-06-14T00:18:56;94758.16;;;16.62;88.42
77723;BME280;67811;42.656;23.394;2023-06-14T00:21:21;94755.25;;;16.64;88.18
77723;BME280;67811;42.656;23.394;2023-06-14T00:23:47;94749.09;;;16.63;87.64
77723;BME280;67811;42.656;23.394;2023-06-14T00:26:12;94744.31;;;16.53;87.67
77723;BME280;67811;42.656;23.394;2023-06-14T00:28:37;94744.88;;;16.44;87.84
77723;BME280;67811;42.656;23.394;2023-06-14T00:31:03;94746.16;;;16.53;87.48
77723;BME280;67811;42.656;23.394;2023-06-14T00:33:28;94745.47;;;16.46;88.13
77723;BME280;67811;42.656;23.394;2023-06-14T00:35:54;94747.44;;;16.50;88.14
77723;BME280;67811;42.656;23.394;2023-06-14T00:38:20;94739.31;;;16.57;88.00
77723;BME280;67811;42.656;23.394;2023-06-14T00:40:45;94737.59;;;16.63;87.52
77723;BME280;67811;42.656;23.394;2023-06-14T00:43:10;94742.81;;;16.69;87.71
77723;BME280;67811;42.656;23.394;2023-06-14T00:45:36;94745.66;;;16.74;87.29
77723;BME280;67811;42.656;23.394;2023-06-14T00:48:02;94734.00;;;16.80;87.19
77723;BME280;67811;42.656;23.394;2023-06-14T00:50:28;94733.81;;;16.82;86.68
77723;BME280;67811;42.656;23.394;2023-06-14T00:52:53;94729.72;;;16.79;86.73
77723;BME280;67811;42.656;23.394;2023-06-14T00:55:19;94732.06;;;16.88;85.34
77723;BME280;67811;42.656;23.394;2023-06-14T00:57:44;94726.75;;;16.46;87.29
77723;BME280;67811;42.656;23.394;2023-06-14T01:00:10;94730.91;;;16.42;86.49
77723;BME280;67811;42.656;23.394;2023-06-14T01:02:37;94724.28;;;16.32;86.08
77723;BME280;67811;42.656;23.394;2023-06-14T01:05:02;94737.56;;;16.09;87.11
77723;BME280;67811;42.656;23.394;2023-06-14T01:07:51;94737.19;;;15.94;88.18
77723;BME280;67811;42.656;23.394;2023-06-14T01:10:31;94738.63;;;15.78;88.63
77723;BME280;67811;42.656;23.394;2023-06-14T01:13:05;94737.56;;;15.79;88.55
77723;BME280;67811;42.656;23.394;2023-06-14T01:15:32;94734.38;;;15.70;89.34
77723;BME280;67811;42.656;23.394;2023-06-14T01:17:59;94735.28;;;15.83;89.68
77723;BME280;67811;42.656;23.394;2023-06-14T01:20:29;94732.66;;;15.76;89.29
77723;BME280;67811;42.656;23.394;2023-06-14T01:22:55;94732.59;;;15.83;89.56
77723;BME280;67811;42.656;23.394;2023-06-14T01:25:21;94737.72;;;15.84;89.11
77723;BME280;67811;42.656;23.394;2023-06-14T01:27:48;94732.66;;;15.94;88.51
77723;BME280;67811;42.656;23.394;2023-06-14T01:30:15;94740.09;;;16.04;88.23
77723;BME280;67811;42.656;23.394;2023-06-14T01:32:41;94735.78;;;16.03;87.41
77723;BME280;67811;42.656;23.394;2023-06-14T01:35:07;94736.38;;;15.93;87.07
77723;BME280;67811;42.656;23.394;2023-06-14T01:37:32;94736.66;;;15.85;87.40
77723;BME280;67811;42.656;23.394;2023-06-14T01:39:59;94737.34;;;15.80;87.83
77723;BME280;67811;42.656;23.394;2023-06-14T01:42:24;94734.16;;;15.53;88.65
77723;BME280;67811;42.656;23.394;2023-06-14T01:44:51;94736.09;;;15.46;89.57
77723;BME280;67811;42.656;23.394;2023-06-14T01:47:18;94735.50;;;15.44;90.08
77723;BME280;67811;42.656;23.394;2023-06-14T01:49:46;94733.72;;;15.57;90.14
77723;BME280;67811;42.656;23.394;2023-06-14T01:52:11;94730.97;;;15.63;90.04
77723;BME280;67811;42.656;23.394;2023-06-14T01:54:36;94726.97;;;15.72;89.18
77723;BME280;67811;42.656;23.394;2023-06-14T01:57:02;94724.22;;;15.79;88.76
77723;BME280;67811;42.656;23.394;2023-06-14T01:59:27;94726.88;;;15.79;88.39
77723;BME280;67811;42.656;23.394;2023-06-14T02:01:52;94723.16;;;15.62;89.03
77723;BME280;67811;42.656;23.394;2023-06-14T02:04:18;94729.75;;;15.59;89.01
77723;BME280;67811;42.656;23.394;2023-06-14T02:06:43;94732.31;;;15.72;88.23
77723;BME280;67811;42.656;23.394;2023-06-14T02:09:08;94738.69;;;15.71;88.18
77723;BME280;67811;42.656;23.394;2023-06-14T02:11:33;94743.72;;;15.79;88.02
77723;BME280;67811;42.656;23.394;2023-06-14T02:13:59;94740.91;;;15.74;88.37
77723;BME280;67811;42.656;23.394;2023-06-14T02:16:24;94743.19;;;15.71;88.82
77723;BME280;67811;42.656;23.394;2023-06-14T02:18:49;94756.94;;;15.74;89.28
77723;BME280;67811;42.656;23.394;2023-06-14T02:21:14;94756.84;;;15.81;89.08
77723;BME280;67811;42.656;23.394;2023-06-14T02:23:40;94758.84;;;15.86;89.31
77723;BME280;67811;42.656;23.394;2023-06-14T02:26:05;94758.19;;;15.90;89.38
77723;BME280;67811;42.656;23.394;2023-06-14T02:28:31;94754.03;;;15.94;89.30
77723;BME280;67811;42.656;23.394;2023-06-14T02:30:56;94752.31;;;16.00;89.27
77723;BME280;67811;42.656;23.394;2023-06-14T02:33:21;94754.41;;;16.10;88.97
77723;BME280;67811;42.656;23.394;2023-06-14T02:35:47;94753.47;;;16.04;89.30
77723;BME280;67811;42.656;23.394;2023-06-14T02:38:12;94754.63;;;16.08;89.74
77723;BME280;67811;42.656;23.394;2023-06-14T02:40:37;94758.63;;;16.17;89.38
77723;BME280;67811;42.656;23.394;2023-06-14T02:43:03;94765.50;;;16.25;89.10
77723;BME280;67811;42.656;23.394;2023-06-14T02:45:28;94751.31;;;16.24;88.47
77723;BME280;67811;42.656;23.394;2023-06-14T02:47:53;94759.47;;;16.29;87.94
77723;BME280;67811;42.656;23.394;2023-06-14T02:50:18;94760.03;;;16.20;88.10
77723;BME280;67811;42.656;23.394;2023-06-14T02:52:44;94762.03;;;16.24;88.52
77723;BME280;67811;42.656;23.394;2023-06-14T02:55:09;94757.84;;;16.28;88.35
77723;BME280;67811;42.656;23.394;2023-06-14T02:57:34;94756.94;;;16.34;88.17
77723;BME280;67811;42.656;23.394;2023-06-14T03:00:00;94765.75;;;16.23;88.32
77723;BME280;67811;42.656;23.394;2023-06-14T03:02:25;94770.00;;;16.13;88.94
77723;BME280;67811;42.656;23.394;2023-06-14T03:04:50;94767.56;;;16.11;89.42
77723;BME280;67811;42.656;23.394;2023-06-14T03:07:15;94766.66;;;16.17;89.20
77723;BME280;67811;42.656;23.394;2023-06-14T03:09:41;94769.47;;;16.22;88.85
77723;BME280;67811;42.656;23.394;2023-06-14T03:12:06;94770.06;;;16.36;88.42
77723;BME280;67811;42.656;23.394;2023-06-14T03:14:32;94771.69;;;16.37;88.39
77723;BME280;67811;42.656;23.394;2023-06-14T03:16:57;94765.09;;;16.40;88.22
77723;BME280;67811;42.656;23.394;2023-06-14T03:19:23;94766.72;;;16.41;88.48
77723;BME280;67811;42.656;23.394;2023-06-14T03:21:48;94780.34;;;16.39;88.14
77723;BME280;67811;42.656;23.394;2023-06-14T03:24:14;94776.59;;;16.40;87.99
77723;BME280;67811;42.656;23.394;2023-06-14T03:26:39;94782.53;;;16.42;88.01
77723;BME280;67811;42.656;23.394;2023-06-14T03:29:04;94778.97;;;16.48;87.82
77723;BME280;67811;42.656;23.394;2023-06-14T03:31:30;94786.75;;;16.50;88.25
77723;BME280;67811;42.656;23.394;2023-06-14T03:33:55;94776.19;;;16.55;87.80
77723;BME280;67811;42.656;23.394;2023-06-14T03:36:20;94772.19;;;16.46;88.03
77723;BME280;67811;42.656;23.394;2023-06-14T03:38:45;94778.13;;;16.48;87.79
77723;BME280;67811;42.656;23.394;2023-06-14T03:41:11;94773.63;;;16.48;87.73
77723;BME280;67811;42.656;23.394;2023-06-14T03:43:36;94788.94;;;16.41;87.85
77723;BME280;67811;42.656;23.394;2023-06-14T03:46:01;94786.25;;;16.41;88.19
77723;BME280;67811;42.656;23.394;2023-06-14T03:48:26;94785.56;;;16.46;88.10
77723;BME280;67811;42.656;23.394;2023-06-14T03:50:52;94787.19;;;16.47;88.10
77723;BME280;67811;42.656;23.394;2023-06-14T03:53:17;94788.94;;;16.41;88.27
77723;BME280;67811;42.656;23.394;2023-06-14T03:55:42;94788.94;;;16.41;88.30
77723;BME280;67811;42.656;23.394;2023-06-14T03:58:07;94782.41;;;16.37;88.54
77723;BME280;67811;42.656;23.394;2023-06-14T04:00:33;94786.59;;;16.33;88.31
77723;BME280;67811;42.656;23.394;2023-06-14T04:02:58;94794.97;;;16.37;87.98
77723;BME280;67811;42.656;23.394;2023-06-14T04:05:24;94794.16;;;16.36;87.80
77723;BME280;67811;42.656;23.394;2023-06-14T04:07:49;94795.78;;;16.37;87.65
77723;BME280;67811;42.656;23.394;2023-06-14T04:10:16;94796.94;;;16.41;87.39
77723;BME280;67811;42.656;23.394;2023-06-14T04:12:42;94793.97;;;16.49;87.52
77723;BME280;67811;42.656;23.394;2023-06-14T04:15:08;94793.16;;;16.49;86.94
77723;BME280;67811;42.656;23.394;2023-06-14T04:17:34;94794.78;;;16.50;87.22
77723;BME280;67811;42.656;23.394;2023-06-14T04:20:00;94788.75;;;16.54;87.39
77723;BME280;67811;42.656;23.394;2023-06-14T04:22:26;94797.47;;;16.62;86.51
77723;BME280;67811;42.656;23.394;2023-06-14T04:24:51;94795.13;;;16.53;86.87
77723;BME280;67811;42.656;23.394;2023-06-14T04:27:16;94796.44;;;16.63;86.53
77723;BME280;67811;42.656;23.394;2023-06-14T04:29:42;94792.19;;;16.73;85.77
77723;BME280;67811;42.656;23.394;2023-06-14T04:32:07;94791.94;;;16.75;85.86
77723;BME280;67811;42.656;23.394;2023-06-14T04:34:33;94798.72;;;16.77;86.19
77723;BME280;67811;42.656;23.394;2023-06-14T04:36:58;94794.88;;;16.85;86.28
77723;BME280;67811;42.656;23.394;2023-06-14T04:39:23;94794.06;;;16.96;85.42
77723;BME280;67811;42.656;23.394;2023-06-14T04:41:49;94795.25;;;17.00;84.96
77723;BME280;67811;42.656;23.394;2023-06-14T04:44:14;94795.25;;;17.12;84.70
77723;BME280;67811;42.656;23.394;2023-06-14T04:46:39;94799.69;;;17.18;83.76
77723;BME280;67811;42.656;23.394;2023-06-14T04:49:05;94793.88;;;17.21;83.58
77723;BME280;67811;42.656;23.394;2023-06-14T04:51:30;94795.50;;;17.22;83.49
77723;BME280;67811;42.656;23.394;2023-06-14T04:53:56;94793.38;;;17.24;82.92
77723;BME280;67811;42.656;23.394;2023-06-14T04:56:21;94799.78;;;17.11;82.56
77723;BME280;67811;42.656;23.394;2023-06-14T04:58:46;94809.31;;;17.07;82.52
77723;BME280;67811;42.656;23.394;2023-06-14T05:01:11;94815.63;;;17.13;82.94
77723;BME280;67811;42.656;23.394;2023-06-14T05:03:37;94814.00;;;17.12;82.51
77723;BME280;67811;42.656;23.394;2023-06-14T05:06:02;94810.50;;;17.11;82.40
77723;BME280;67811;42.656;23.394;2023-06-14T05:08:27;94815.28;;;17.21;83.29
77723;BME280;67811;42.656;23.394;2023-06-14T05:10:53;94810.63;;;17.28;82.31
77723;BME280;67811;42.656;23.394;2023-06-14T05:13:18;94811.78;;;17.32;82.16
77723;BME280;67811;42.656;23.394;2023-06-14T05:15:43;94814.81;;;17.36;82.05
77723;BME280;67811;42.656;23.394;2023-06-14T05:18:09;94819.47;;;17.41;82.23
77723;BME280;67811;42.656;23.394;2023-06-14T05:20:34;94815.03;;;17.46;82.17
77723;BME280;67811;42.656;23.394;2023-06-14T05:22:59;94825.75;;;17.58;81.93
77723;BME280;67811;42.656;23.394;2023-06-14T05:25:25;94822.03;;;17.59;81.61
77723;BME280;67811;42.656;23.394;2023-06-14T05:27:50;94827.03;;;17.67;81.10
77723;BME280;67811;42.656;23.394;2023-06-14T05:30:15;94827.28;;;17.77;80.24
77723;BME280;67811;42.656;23.394;2023-06-14T05:32:41;94830.84;;;17.95;79.85
77723;BME280;67811;42.656;23.394;2023-06-14T05:35:07;94839.19;;;18.22;79.40
77723;BME280;67811;42.656;23.394;2023-06-14T05:37:32;94836.91;;;18.42;78.43
77723;BME280;67811;42.656;23.394;2023-06-14T05:39:57;94835.53;;;18.28;77.12
77723;BME280;67811;42.656;23.394;2023-06-14T05:42:23;94826.63;;;18.39;76.54
77723;BME280;67811;42.656;23.394;2023-06-14T05:44:48;94832.38;;;18.59;76.33
77723;BME280;67811;42.656;23.394;2023-06-14T05:47:13;94834.06;;;18.77;75.95
77723;BME280;67811;42.656;23.394;2023-06-14T05:49:39;94838.78;;;18.70;76.12
77723;BME280;67811;42.656;23.394;2023-06-14T05:52:05;94841.91;;;18.67;76.63
77723;BME280;67811;42.656;23.394;2023-06-14T05:54:30;94840.53;;;18.64;76.31
77723;BME280;67811;42.656;23.394;2023-06-14T05:56:55;94848.16;;;18.56;76.69
77723;BME280;67811;42.656;23.394;2023-06-14T05:59:21;94846.06;;;18.58;77.05
77723;BME280;67811;42.656;23.394;2023-06-14T06:01:46;94843.47;;;18.63;76.45
77723;BME280;67811;42.656;23.394;2023-06-14T06:04:11;94841.88;;;18.79;76.25
77723;BME280;67811;42.656;23.394;2023-06-14T06:06:36;94845.88;;;18.76;76.27
77723;BME280;67811;42.656;23.394;2023-06-14T06:09:02;94848.16;;;18.84;76.20
77723;BME280;67811;42.656;23.394;2023-06-14T06:11:27;94855.38;;;18.84;75.34
77723;BME280;67811;42.656;23.394;2023-06-14T06:13:52;94850.53;;;18.81;75.18
77723;BME280;67811;42.656;23.394;2023-06-14T06:16:17;94854.91;;;18.87;74.94
77723;BME280;67811;42.656;23.394;2023-06-14T06:18:43;94852.06;;;18.93;74.78
77723;BME280;67811;42.656;23.394;2023-06-14T06:21:08;94855.66;;;18.99;74.21
77723;BME280;67811;42.656;23.394;2023-06-14T06:23:33;94855.72;;;18.87;75.15
77723;BME280;67811;42.656;23.394;2023-06-14T06:25:58;94854.09;;;18.69;75.03
77723;BME280;67811;42.656;23.394;2023-06-14T06:28:24;94852.22;;;18.58;75.19
77723;BME280;67811;42.656;23.394;2023-06-14T06:30:49;94860.59;;;18.62;74.75
77723;BME280;67811;42.656;23.394;2023-06-14T06:33:14;94867.88;;;18.90;74.85
77723;BME280;67811;42.656;23.394;2023-06-14T06:35:40;94861.75;;;18.94;73.87
77723;BME280;67811;42.656;23.394;2023-06-14T06:38:05;94860.97;;;19.11;73.62
77723;BME280;67811;42.656;23.394;2023-06-14T06:40:30;94856.81;;;19.20;73.89
77723;BME280;67811;42.656;23.394;2023-06-14T06:42:55;94857.63;;;19.37;72.44
77723;BME280;67811;42.656;23.394;2023-06-14T06:45:21;94867.31;;;19.38;72.38
77723;BME280;67811;42.656;23.394;2023-06-14T06:47:46;94863.66;;;19.44;72.15
77723;BME280;67811;42.656;23.394;2023-06-14T06:50:11;94867.41;;;19.43;72.21
77723;BME280;67811;42.656;23.394;2023-06-14T06:52:37;94863.75;;;19.66;71.87
77723;BME280;67811;42.656;23.394;2023-06-14T06:55:02;94863.06;;;19.76;71.50
77723;BME280;67811;42.656;23.394;2023-06-14T06:57:27;94867.16;;;19.79;72.39
77723;BME280;67811;42.656;23.394;2023-06-14T06:59:53;94865.59;;;19.83;70.81
77723;BME280;67811;42.656;23.394;2023-06-14T07:02:18;94864.03;;;19.87;70.43
77723;BME280;67811;42.656;23.394;2023-06-14T07:04:43;94868.28;;;19.83;70.60
77723;BME280;67811;42.656;23.394;2023-06-14T07:07:08;94868.41;;;19.93;71.68
77723;BME280;67811;42.656;23.394;2023-06-14T07:09:34;94863.56;;;19.90;70.12
77723;BME280;67811;42.656;23.394;2023-06-14T07:11:59;94866.94;;;20.02;70.51
77723;BME280;67811;42.656;23.394;2023-06-14T07:14:24;94870.78;;;20.06;69.89
77723;BME280;67811;42.656;23.394;2023-06-14T07:16:49;94864.13;;;20.14;68.56
77723;BME280;67811;42.656;23.394;2023-06-14T07:19:15;94871.72;;;20.17;68.46
77723;BME280;67811;42.656;23.394;2023-06-14T07:21:40;94858.19;;;20.34;69.07
77723;BME280;67811;42.656;23.394;2023-06-14T07:24:06;94854.78;;;20.65;68.33
77723;BME280;67811;42.656;23.394;2023-06-14T07:26:31;94856.72;;;21.24;66.23
77723;BME280;67811;42.656;23.394;2023-06-14T07:28:57;94851.78;;;21.85;65.28
77723;BME280;67811;42.656;23.394;2023-06-14T07:31:22;94851.81;;;21.90;64.00
77723;BME280;67811;42.656;23.394;2023-06-14T07:33:47;94855.13;;;22.02;63.44
77723;BME280;67811;42.656;23.394;2023-06-14T07:36:12;94854.00;;;21.93;63.01
77723;BME280;67811;42.656;23.394;2023-06-14T07:38:38;94845.69;;;22.05;62.52
77723;BME280;67811;42.656;23.394;2023-06-14T07:41:03;94846.63;;;22.21;60.90
77723;BME280;67811;42.656;23.394;2023-06-14T07:43:29;94849.19;;;22.00;61.97
77723;BME280;67811;42.656;23.394;2023-06-14T07:45:54;94848.56;;;21.88;63.28
77723;BME280;67811;42.656;23.394;2023-06-14T07:48:19;94853.38;;;21.81;62.83
77723;BME280;67811;42.656;23.394;2023-06-14T07:50:45;94855.50;;;21.74;62.17
77723;BME280;67811;42.656;23.394;2023-06-14T07:53:10;94854.69;;;21.73;62.76
77723;BME280;67811;42.656;23.394;2023-06-14T07:55:35;94860.47;;;21.97;61.99
77723;BME280;67811;42.656;23.394;2023-06-14T07:58:00;94864.69;;;22.20;61.51
77723;BME280;67811;42.656;23.394;2023-06-14T08:00:26;94869.28;;;22.20;60.61
77723;BME280;67811;42.656;23.394;2023-06-14T08:02:51;94866.41;;;22.47;59.79
77723;BME280;67811;42.656;23.394;2023-06-14T08:05:16;94873.00;;;22.71;59.56
77723;BME280;67811;42.656;23.394;2023-06-14T08:07:41;94870.13;;;23.03;58.17
77723;BME280;67811;42.656;23.394;2023-06-14T08:10:07;94873.94;;;23.38;57.27
77723;BME280;67811;42.656;23.394;2023-06-14T08:12:33;94875.31;;;23.66;57.02
77723;BME280;67811;42.656;23.394;2023-06-14T08:14:59;94874.97;;;24.13;54.63
77723;BME280;67811;42.656;23.394;2023-06-14T08:17:24;94879.13;;;24.70;54.08
77723;BME280;67811;42.656;23.394;2023-06-14T08:19:49;94883.34;;;24.22;53.90
77723;BME280;67811;42.656;23.394;2023-06-14T08:22:14;94887.97;;;24.11;55.01
77723;BME280;67811;42.656;23.394;2023-06-14T08:24:40;94886.66;;;23.73;55.01
77723;BME280;67811;42.656;23.394;2023-06-14T08:27:06;94883.16;;;23.52;56.43
77723;BME280;67811;42.656;23.394;2023-06-14T08:29:31;94889.63;;;23.51;56.02
77723;BME280;67811;42.656;23.394;2023-06-14T08:31:57;94893.41;;;23.20;55.46
77723;BME280;67811;42.656;23.394;2023-06-14T08:34:22;94898.22;;;22.97;56.95
77723;BME280;67811;42.656;23.394;2023-06-14T08:36:47;94895.06;;;23.41;56.36
77723;BME280;67811;42.656;23.394;2023-06-14T08:39:13;94890.44;;;23.92;54.79
77723;BME280;67811;42.656;23.394;2023-06-14T08:41:38;94882.78;;;24.25;54.01
77723;BME280;67811;42.656;23.394;2023-06-14T08:44:03;94884.53;;;24.70;53.16
77723;BME280;67811;42.656;23.394;2023-06-14T08:46:31;94872.16;;;25.14;50.52
77723;BME280;67811;42.656;23.394;2023-06-14T08:48:57;94875.09;;;25.57;49.68
77723;BME280;67811;42.656;23.394;2023-06-14T08:51:25;94873.44;;;25.95;48.61
77723;BME280;67811;42.656;23.394;2023-06-14T08:53:53;94865.63;;;25.49;48.35
77723;BME280;67811;42.656;23.394;2023-06-14T08:56:19;94870.38;;;25.67;48.82
77723;BME280;67811;42.656;23.394;2023-06-14T08:58:46;94861.13;;;26.02;46.90
77723;BME280;67811;42.656;23.394;2023-06-14T09:01:11;94862.75;;;26.27;46.58
77723;BME280;67811;42.656;23.394;2023-06-14T09:03:37;94864.31;;;26.34;46.64
77723;BME280;67811;42.656;23.394;2023-06-14T09:06:02;94871.25;;;26.69;44.93
77723;BME280;67811;42.656;23.394;2023-06-14T09:08:28;94874.34;;;26.62;45.55
77723;BME280;67811;42.656;23.394;2023-06-14T09:10:53;94865.88;;;26.88;44.45
77723;BME280;67811;42.656;23.394;2023-06-14T09:13:19;94858.25;;;27.27;43.88
77723;BME280;67811;42.656;23.394;2023-06-14T09:15:45;94853.41;;;27.57;42.24
77723;BME280;67811;42.656;23.394;2023-06-14T09:18:10;94853.75;;;27.37;43.55
77723;BME280;67811;42.656;23.394;2023-06-14T09:20:36;94862.75;;;26.75;44.22
77723;BME280;67811;42.656;23.394;2023-06-14T09:23:02;94867.47;;;26.89;43.91
77723;BME280;67811;42.656;23.394;2023-06-14T09:25:29;94861.22;;;26.21;43.94
77723;BME280;67811;42.656;23.394;2023-06-14T09:27:54;94859.03;;;25.26;46.85
77723;BME280;67811;42.656;23.394;2023-06-14T09:30:20;94857.22;;;25.16;47.23
77723;BME280;67811;42.656;23.394;2023-06-14T09:32:45;94860.78;;;25.12;47.80
77723;BME280;67811;42.656;23.394;2023-06-14T09:35:11;94851.97;;;24.86;47.99
77723;BME280;67811;42.656;23.394;2023-06-14T09:37:36;94846.22;;;25.37;49.91
77723;BME280;67811;42.656;23.394;2023-06-14T09:40:03;94842.59;;;25.46;47.53
77723;BME280;67811;42.656;23.394;2023-06-14T09:42:28;94838.13;;;26.19;47.27
77723;BME280;67811;42.656;23.394;2023-06-14T09:44:55;94839.38;;;25.73;47.18
77723;BME280;67811;42.656;23.394;2023-06-14T09:47:22;94836.00;;;26.16;45.73
77723;BME280;67811;42.656;23.394;2023-06-14T09:49:48;94838.13;;;26.86;44.76
77723;BME280;67811;42.656;23.394;2023-06-14T09:52:18;94832.94;;;27.08;42.95
77723;BME280;67811;42.656;23.394;2023-06-14T09:54:47;94835.44;;;27.42;42.00
77723;BME280;67811;42.656;23.394;2023-06-14T09:57:30;94833.91;;;27.17;42.95
77723;BME280;67811;42.656;23.394;2023-06-14T09:59:57;94835.19;;;26.15;44.41
77723;BME280;67811;42.656;23.394;2023-06-14T10:04:53;94829.88;;;25.03;46.68
77723;BME280;67811;42.656;23.394;2023-06-14T10:07:20;94829.44;;;24.36;47.68
77723;BME280;67811;42.656;23.394;2023-06-14T10:09:47;94832.84;;;24.67;49.27
77723;BME280;67811;42.656;23.394;2023-06-14T10:12:12;94817.84;;;24.80;48.38
77723;BME280;67811;42.656;23.394;2023-06-14T10:14:37;94818.75;;;25.04;47.90
77723;BME280;67811;42.656;23.394;2023-06-14T10:17:08;94817.38;;;26.04;46.29
77723;BME280;67811;42.656;23.394;2023-06-14T10:19:48;94805.47;;;25.71;45.75
77723;BME280;67811;42.656;23.394;2023-06-14T10:22:37;94806.47;;;25.85;44.51
77723;BME280;67811;42.656;23.394;2023-06-14T10:25:07;94810.16;;;26.66;44.76
77723;BME280;67811;42.656;23.394;2023-06-14T10:27:32;94802.22;;;27.08;43.06
77723;BME280;67811;42.656;23.394;2023-06-14T10:32:27;94805.53;;;27.75;41.16
77723;BME280;67811;42.656;23.394;2023-06-14T10:34:59;94816.53;;;26.57;43.90
77723;BME280;67811;42.656;23.394;2023-06-14T10:37:25;94811.09;;;26.57;44.77
77723;BME280;67811;42.656;23.394;2023-06-14T10:39:51;94806.06;;;27.07;42.39
77723;BME280;67811;42.656;23.394;2023-06-14T10:42:17;94797.94;;;27.72;41.38
77723;BME280;67811;42.656;23.394;2023-06-14T10:45:04;94800.38;;;27.22;42.63
77723;BME280;67811;42.656;23.394;2023-06-14T10:50:07;94799.50;;;27.59;41.99
77723;BME280;67811;42.656;23.394;2023-06-14T10:52:37;94791.22;;;27.97;41.44
77723;BME280;67811;42.656;23.394;2023-06-14T10:55:05;94776.09;;;28.04;40.84
77723;BME280;67811;42.656;23.394;2023-06-14T10:57:33;94779.41;;;28.70;39.86
77723;BME280;67811;42.656;23.394;2023-06-14T10:59:59;94780.41;;;29.10;38.78
77723;BME280;67811;42.656;23.394;2023-06-14T11:05:27;94767.63;;;28.06;41.16
77723;BME280;67811;42.656;23.394;2023-06-14T11:10:38;94762.38;;;28.09;40.21
77723;BME280;67811;42.656;23.394;2023-06-14T11:13:04;94768.75;;;28.32;40.76
77723;BME280;67811;42.656;23.394;2023-06-14T11:15:30;94765.59;;;27.98;40.28
77723;BME280;67811;42.656;23.394;2023-06-14T11:17:56;94762.75;;;27.75;40.77
77723;BME280;67811;42.656;23.394;2023-06-14T11:20:25;94765.75;;;27.27;41.02
77723;BME280;67811;42.656;23.394;2023-06-14T11:22:50;94764.97;;;26.89;42.52
77723;BME280;67811;42.656;23.394;2023-06-14T11:25:16;94765.19;;;26.55;43.24
77723;BME280;67811;42.656;23.394;2023-06-14T11:27:42;94760.69;;;25.73;44.05
77723;BME280;67811;42.656;23.394;2023-06-14T11:30:08;94751.13;;;25.81;44.82
77723;BME280;67811;42.656;23.394;2023-06-14T11:32:33;94752.19;;;26.28;43.83
77723;BME280;67811;42.656;23.394;2023-06-14T11:34:58;94754.06;;;26.09;43.19
77723;BME280;67811;42.656;23.394;2023-06-14T11:37:25;94758.69;;;26.32;43.70
77723;BME280;67811;42.656;23.394;2023-06-14T11:39:51;94757.47;;;26.62;42.89
77723;BME280;67811;42.656;23.394;2023-06-14T11:42:17;94755.69;;;26.52;43.11
77723;BME280;67811;42.656;23.394;2023-06-14T11:44:42;94751.91;;;26.30;43.83
77723;BME280;67811;42.656;23.394;2023-06-14T11:47:10;94750.66;;;25.98;45.20
77723;BME280;67811;42.656;23.394;2023-06-14T11:49:38;94741.38;;;26.47;43.60
77723;BME280;67811;42.656;23.394;2023-06-14T11:52:03;94739.91;;;26.92;41.76
77723;BME280;67811;42.656;23.394;2023-06-14T11:54:29;94738.63;;;26.28;42.34
77723;BME280;67811;42.656;23.394;2023-06-14T11:56:54;94734.38;;;25.16;44.80
77723;BME280;67811;42.656;23.394;2023-06-14T11:59:20;94728.34;;;24.90;45.50
77723;BME280;67811;42.656;23.394;2023-06-14T12:01:47;94724.78;;;24.94;45.82
77723;BME280;67811;42.656;23.394;2023-06-14T12:04:13;94720.88;;;25.40;45.67
77723;BME280;67811;42.656;23.394;2023-06-14T12:06:38;94716.06;;;25.61;46.54
77723;BME280;67811;42.656;23.394;2023-06-14T12:09:05;94716.63;;;26.06;44.92
77723;BME280;67811;42.656;23.394;2023-06-14T12:11:35;94707.25;;;26.60;43.05
77723;BME280;67811;42.656;23.394;2023-06-14T12:14:00;94697.63;;;27.00;43.58
77723;BME280;67811;42.656;23.394;2023-06-14T12:16:31;94707.38;;;26.49;43.17
77723;BME280;67811;42.656;23.394;2023-06-14T12:19:00;94713.94;;;26.24;42.78
77723;BME280;67811;42.656;23.394;2023-06-14T12:21:26;94709.09;;;25.79;44.53
77723;BME280;67811;42.656;23.394;2023-06-14T12:23:52;94709.34;;;25.53;44.39
77723;BME280;67811;42.656;23.394;2023-06-14T12:26:19;94699.41;;;25.14;46.14
77723;BME280;67811;42.656;23.394;2023-06-14T12:28:46;94706.50;;;25.05;47.51
77723;BME280;67811;42.656;23.394;2023-06-14T12:31:12;94707.00;;;25.17;49.45
77723;BME280;67811;42.656;23.394;2023-06-14T12:33:41;94701.31;;;25.14;45.89
77723;BME280;67811;42.656;23.394;2023-06-14T12:36:07;94690.56;;;25.33;49.07
77723;BME280;67811;42.656;23.394;2023-06-14T12:38:33;94693.59;;;25.26;46.40
77723;BME280;67811;42.656;23.394;2023-06-14T12:40:58;94692.94;;;25.10;50.07
77723;BME280;67811;42.656;23.394;2023-06-14T12:43:24;94679.97;;;25.02;46.48
77723;BME280;67811;42.656;23.394;2023-06-14T12:45:49;94682.81;;;24.87;49.07
77723;BME280;67811;42.656;23.394;2023-06-14T12:48:14;94690.97;;;24.48;47.29
77723;BME280;67811;42.656;23.394;2023-06-14T12:50:40;94683.88;;;24.57;49.52
77723;BME280;67811;42.656;23.394;2023-06-14T12:53:05;94681.25;;;24.47;46.61
77723;BME280;67811;42.656;23.394;2023-06-14T12:55:30;94680.47;;;24.41;46.83
77723;BME280;67811;42.656;23.394;2023-06-14T12:57:55;94673.88;;;24.52;48.10